Terminal Aerodrome Forecast
Issued by NWS St Louis, MO

Current Version | Previous Version | Text Only | Print | Product List | Glossary On
Versions: 1 2 3 4 5 6 7 8 9 10 11 12 13 14 15 16 17 18 19 20 21 22 23 24 25 26 27 28 29 30 31 32 33 34 35 36
000
FTUS43 KLSX 030520
TAFSTL
TAF
KSTL 030520Z 0306/0412 VRB04KT P6SM SCT015 BKN040
      TEMPO 0306/0308 BKN015
     FM030900 VRB04KT 4SM BR BKN005
     FM031400 31007KT P6SM BKN035
     FM040100 25006KT P6SM SCT050
     FM040900 25011KT P6SM BKN120=

USA.gov is the U.S. government's official web portal to all federal, state and local government web resources and services.